Time;durP1;ratioP1;P1;durP2;ratioP2;P2;SDS_P1;SDS_P2;PMS_P1;PMS_P2;Temp;Humidity;BMP_temperature;BMP_pressure;BME280_temperature;BME280_humidity;BME280_pressure;Samples;Min_cycle;Max_cycle;Signal;HPM_P1;HPM_P2
2022/05/01 00:00:33;;;;;;;28.73;23.13;;;;;;;15.24;57.27;99271.13;7030917;28;20221;-77
2022/05/01 00:03:56;;;;;;;30.60;24.17;;;;;;;15.06;57.66;99276.50;7025498;28;20205;-77
2022/05/01 00:07:18;;;;;;;32.53;24.67;;;;;;;15.32;57.25;99266.25;7029382;28;20226;-77
2022/05/01 00:10:40;;;;;;;32.57;25.27;;;;;;;15.37;57.44;99269.13;7029189;28;20226;-77
2022/05/01 00:14:01;;;;;;;28.00;23.57;;;;;;;15.21;56.69;99242.50;7029385;28;20725;-77
2022/05/01 00:17:23;;;;;;;28.00;23.37;;;;;;;15.44;56.49;99271.78;7029715;28;20208;-77
2022/05/01 00:20:46;;;;;;;27.10;22.60;;;;;;;15.67;55.52;99233.88;7023971;28;20280;-77
2022/05/01 00:24:08;;;;;;;27.87;22.33;;;;;;;15.83;55.73;99268.63;7029964;28;20690;-77
2022/05/01 00:27:30;;;;;;;28.63;21.30;;;;;;;15.84;55.55;99264.84;7029557;28;20622;-77
2022/05/01 00:30:51;;;;;;;26.47;20.80;;;;;;;16.04;54.68;99260.00;7029741;28;20229;-77
2022/05/01 00:37:53;;;;;;;26.03;20.37;;;;;;;15.80;54.98;99253.59;7029231;28;20569;-77
2022/05/01 00:41:15;;;;;;;26.47;22.03;;;;;;;15.57;56.26;99255.34;7029306;28;20726;-77
2022/05/01 00:44:37;;;;;;;30.37;22.20;;;;;;;15.64;56.46;99256.09;7029485;28;20205;-77
2022/05/01 00:47:58;;;;;;;23.93;21.13;;;;;;;15.94;54.82;99254.28;7028746;28;20272;-77
2022/05/01 00:51:21;;;;;;;24.80;21.33;;;;;;;15.58;55.74;99248.84;7029628;28;20227;-77
2022/05/01 00:54:44;;;;;;;28.67;22.23;;;;;;;15.36;56.96;99256.63;7029349;28;20212;-78
2022/05/01 00:58:07;;;;;;;29.30;22.10;;;;;;;15.36;56.83;99248.47;7028608;28;20209;-78
2022/05/01 01:01:29;;;;;;;29.47;24.17;;;;;;;15.37;56.91;99261.00;7029394;28;20312;-77
2022/05/01 01:04:51;;;;;;;33.17;25.47;;;;;;;15.09;57.76;99255.16;7029668;28;20281;-77
2022/05/01 01:08:12;;;;;;;32.50;25.77;;;;;;;15.04;58.53;99249.56;7027782;28;20239;-77
2022/05/01 01:11:36;;;;;;;35.47;26.33;;;;;;;14.80;58.42;99217.00;7028862;28;20704;-77
2022/05/01 01:14:58;;;;;;;35.43;27.33;;;;;;;15.30;57.71;99245.78;7028575;28;20212;-77
2022/05/01 01:18:19;;;;;;;36.60;28.10;;;;;;;14.93;58.52;99260.34;7028480;28;20214;-78
2022/05/01 01:21:42;;;;;;;36.83;27.23;;;;;;;15.05;58.32;99253.94;7029635;28;20319;-77
2022/05/01 01:25:04;;;;;;;40.20;28.87;;;;;;;15.08;57.80;99250.78;7034671;28;20218;-77
2022/05/01 01:28:26;;;;;;;38.30;27.23;;;;;;;15.18;58.19;99242.97;7033602;28;20223;-77
2022/05/01 01:31:47;;;;;;;39.93;29.47;;;;;;;15.07;58.09;99241.00;7034463;28;20239;-77
2022/05/01 01:35:10;;;;;;;45.20;29.87;;;;;;;15.08;58.75;99244.50;7034169;28;20207;-77
2022/05/01 01:38:33;;;;;;;39.70;30.03;;;;;;;14.73;58.73;99244.19;7034094;28;20207;-77
2022/05/01 01:41:55;;;;;;;39.43;28.80;;;;;;;15.15;58.31;99229.00;7034155;28;20302;-77
2022/05/01 01:45:17;;;;;;;37.57;28.37;;;;;;;15.14;57.49;99232.75;7034032;28;20212;-77
2022/05/01 01:48:39;;;;;;;35.43;27.50;;;;;;;15.23;56.73;99228.72;7033746;28;20237;-77
2022/05/01 01:52:01;;;;;;;34.37;26.80;;;;;;;15.32;56.74;99227.34;7033915;28;20917;-78
2022/05/01 01:55:23;;;;;;;35.47;26.93;;;;;;;15.31;56.50;99228.41;7032562;28;20215;-77
2022/05/01 01:58:45;;;;;;;39.87;28.07;;;;;;;15.46;56.34;99229.72;7032210;28;20230;-77
2022/05/01 02:02:08;;;;;;;37.87;29.13;;;;;;;15.23;56.73;99218.66;7033818;28;20225;-77
2022/05/01 02:05:30;;;;;;;34.80;26.33;;;;;;;15.33;56.43;99226.34;7034066;28;20691;-77
2022/05/01 02:08:52;;;;;;;36.43;25.80;;;;;;;15.14;56.91;99213.75;7032789;28;20375;-77
2022/05/01 02:12:15;;;;;;;35.93;27.60;;;;;;;15.39;56.20;99206.44;7033105;28;20236;-78
2022/05/01 02:15:37;;;;;;;37.70;28.40;;;;;;;15.31;56.27;99206.66;7032796;28;20221;-77
2022/05/01 02:18:58;;;;;;;38.23;27.33;;;;;;;15.26;56.61;99217.38;7030403;28;20211;-77
2022/05/01 02:22:21;;;;;;;38.23;26.47;;;;;;;15.16;56.78;99219.81;7003876;28;20235;-77
2022/05/01 02:25:43;;;;;;;33.43;27.00;;;;;;;15.32;56.41;99211.91;7004043;28;20213;-77
2022/05/01 02:29:09;;;;;;;34.43;26.47;;;;;;;15.05;57.24;99213.19;7004096;28;20321;-77
2022/05/01 02:32:31;;;;;;;35.30;27.40;;;;;;;15.20;57.13;99210.97;7005067;28;20701;-77
2022/05/01 02:35:52;;;;;;;38.83;26.57;;;;;;;14.74;57.57;99201.63;7004115;28;20212;-77
2022/05/01 02:39:14;;;;;;;35.67;27.27;;;;;;;15.09;57.64;99208.16;7004570;28;20244;-77
2022/05/01 02:42:36;;;;;;;38.50;26.83;;;;;;;15.23;57.03;99196.13;7004879;28;20229;-77
2022/05/01 02:45:58;;;;;;;36.37;28.37;;;;;;;15.06;57.24;99205.91;7004264;28;20227;-77
2022/05/01 02:49:21;;;;;;;36.97;27.03;;;;;;;14.98;57.90;99200.75;7004478;28;20621;-78
2022/05/01 02:52:43;;;;;;;41.03;28.37;;;;;;;14.60;58.61;99200.88;7004598;28;20284;-77
2022/05/01 02:56:05;;;;;;;38.40;28.40;;;;;;;14.42;59.01;99206.25;7004127;28;20203;-78
2022/05/01 02:59:27;;;;;;;45.03;28.40;;;;;;;14.99;57.85;99195.09;7004079;28;20244;-77
2022/05/01 03:02:50;;;;;;;39.67;27.93;;;;;;;14.64;57.83;99180.38;7004424;28;20279;-77
2022/05/01 03:06:11;;;;;;;38.43;27.47;;;;;;;14.08;59.49;99201.22;7004262;28;20684;-77
2022/05/01 03:09:33;;;;;;;41.20;28.93;;;;;;;14.54;58.89;99179.22;7003623;28;20234;-77
2022/05/01 03:12:54;;;;;;;35.60;27.37;;;;;;;14.69;57.62;99196.00;7002985;28;20226;-77
2022/05/01 03:16:16;;;;;;;40.27;28.87;;;;;;;14.58;58.28;99191.31;7003402;28;20694;-77
2022/05/01 03:23:18;;;;;;;37.23;27.40;;;;;;;14.91;57.78;99198.09;7003773;28;20297;-77
2022/05/01 03:26:42;;;;;;;37.20;26.83;;;;;;;14.79;57.41;99202.59;7002757;28;20199;-77
2022/05/01 03:30:17;;;;;;;38.77;29.20;;;;;;;14.77;57.79;99193.00;7003375;28;20227;-77
2022/05/01 03:33:38;;;;;;;39.40;27.03;;;;;;;15.18;57.04;99191.38;7003387;28;20207;-77
2022/05/01 03:37:01;;;;;;;37.27;28.03;;;;;;;15.24;56.66;99176.88;7001918;28;20234;-77
2022/05/01 03:40:23;;;;;;;35.13;26.43;;;;;;;14.96;56.94;99192.84;7002904;28;20298;-77
2022/05/01 03:43:45;;;;;;;41.17;29.03;;;;;;;14.92;57.51;99186.19;7002358;28;20731;-77
2022/05/01 03:47:06;;;;;;;37.13;28.10;;;;;;;14.78;57.79;99186.53;7001378;28;20211;-77
2022/05/01 03:50:28;;;;;;;44.37;29.00;;;;;;;14.88;56.99;99185.00;7002861;28;20832;-77
2022/05/01 03:53:51;;;;;;;39.80;27.70;;;;;;;14.76;57.83;99189.44;7002810;28;20287;-77
2022/05/01 03:57:12;;;;;;;43.33;28.63;;;;;;;14.55;57.94;99194.44;7003443;28;20349;-77
2022/05/01 04:00:35;;;;;;;39.13;26.10;;;;;;;14.87;56.93;99185.19;7003533;28;20218;-77
2022/05/01 04:03:56;;;;;;;39.27;27.97;;;;;;;15.04;56.96;99200.69;7003423;28;20207;-77
2022/05/01 04:07:26;;;;;;;41.20;27.00;;;;;;;15.05;56.78;99188.75;7053649;27;20549;-78
2022/05/01 04:10:47;;;;;;;38.97;28.67;;;;;;;15.02;56.40;99182.94;7053942;28;20306;-77
2022/05/01 04:14:09;;;;;;;41.27;29.13;;;;;;;15.10;56.53;99193.53;7053302;28;20253;-77
2022/05/01 04:17:31;;;;;;;38.33;28.43;;;;;;;15.18;56.26;99188.66;7053265;28;20206;-77
2022/05/01 04:20:52;;;;;;;37.50;26.73;;;;;;;14.90;56.86;99187.47;7044357;28;20718;-77
2022/05/01 04:24:15;;;;;;;38.13;27.03;;;;;;;14.63;57.93;99195.00;7053035;28;20320;-77
2022/05/01 04:27:37;;;;;;;37.17;28.10;;;;;;;14.62;58.19;99197.97;7053143;28;20200;-77
2022/05/01 04:30:58;;;;;;;39.40;28.50;;;;;;;14.99;57.16;99195.09;7052763;28;20309;-77
2022/05/01 04:34:20;;;;;;;36.70;26.97;;;;;;;14.64;57.74;99203.97;7049080;28;20244;-77
2022/05/01 04:37:41;;;;;;;41.73;28.50;;;;;;;14.37;58.17;99202.50;7024131;28;20237;-77
2022/05/01 04:41:04;;;;;;;40.53;27.47;;;;;;;13.99;59.31;99197.09;7024723;28;20252;-77
2022/05/01 04:44:26;;;;;;;36.43;27.27;;;;;;;14.68;58.16;99214.16;7024238;28;20212;-77
2022/05/01 04:47:47;;;;;;;37.07;27.33;;;;;;;14.76;57.40;99211.16;7023585;28;20294;-77
2022/05/01 04:51:09;;;;;;;38.43;27.63;;;;;;;14.92;57.13;99207.09;7043186;28;20319;-77
2022/05/01 04:54:31;;;;;;;40.73;26.57;;;;;;;14.59;57.60;99206.53;7052531;28;20200;-77
2022/05/01 04:57:54;;;;;;;39.97;27.83;;;;;;;15.00;57.09;99213.06;7051707;28;20199;-77
2022/05/01 05:01:17;;;;;;;38.93;27.83;;;;;;;14.87;56.72;99193.34;7052502;28;20261;-77
2022/05/01 05:04:39;;;;;;;38.87;27.63;;;;;;;14.92;56.51;99205.19;7050864;28;20234;-77
2022/05/01 05:09:53;;;;;;;40.47;28.13;;;;;;;14.92;56.55;99207.91;7049901;28;20202;-77
2022/05/01 05:11:42;;;;;;;37.37;27.83;;;;;;;15.08;56.49;99217.34;7051324;28;20222;-77
2022/05/01 05:15:08;;;;;;;41.33;27.17;;;;;;;15.14;56.80;99230.03;7050592;28;20257;-77
2022/05/01 05:18:30;;;;;;;40.70;28.37;;;;;;;14.76;57.28;99213.06;7033285;28;20206;-78
2022/05/01 05:21:52;;;;;;;38.47;27.80;;;;;;;15.09;56.99;99235.31;7034369;28;20278;-77
2022/05/01 05:25:15;;;;;;;38.50;28.80;;;;;;;14.70;57.47;99231.06;7036137;28;20264;-77
2022/05/01 05:28:37;;;;;;;42.20;28.70;;;;;;;14.25;58.73;99236.81;7035242;28;20213;-77
2022/05/01 05:32:00;;;;;;;42.27;29.07;;;;;;;14.52;58.37;99232.88;7022521;28;20741;-77
2022/05/01 05:35:22;;;;;;;37.47;26.50;;;;;;;14.68;58.04;99238.59;7005590;28;20199;-77
2022/05/01 05:38:43;;;;;;;37.20;26.70;;;;;;;14.57;57.90;99227.63;7005283;28;20746;-77
2022/05/01 05:42:06;;;;;;;41.50;28.40;;;;;;;14.60;58.21;99248.88;7005546;28;20224;-77
2022/05/01 05:45:27;;;;;;;40.83;28.73;;;;;;;14.59;57.89;99236.38;7005292;28;20230;-77
2022/05/01 05:48:50;;;;;;;37.03;25.93;;;;;;;15.14;56.77;99243.63;7004810;28;20204;-77
2022/05/01 05:52:12;;;;;;;39.07;28.13;;;;;;;15.04;56.66;99252.28;7005407;28;20231;-77
2022/05/01 05:55:34;;;;;;;36.63;27.77;;;;;;;15.07;56.76;99237.44;7005068;28;20202;-77
2022/05/01 05:58:56;;;;;;;37.37;28.30;;;;;;;15.05;57.07;99247.69;7004796;28;20258;-77
2022/05/01 06:02:17;;;;;;;35.13;27.03;;;;;;;15.00;57.22;99250.25;7005066;28;20314;-77
2022/05/01 06:05:40;;;;;;;40.90;28.80;;;;;;;15.11;56.92;99238.66;7030698;28;20262;-77
2022/05/01 06:09:02;;;;;;;39.60;28.70;;;;;;;15.23;56.55;99242.28;7033188;28;20301;-77
2022/05/01 06:12:24;;;;;;;37.37;28.13;;;;;;;14.70;58.25;99243.81;7008422;28;20613;-77
2022/05/01 06:15:46;;;;;;;42.40;29.37;;;;;;;14.68;58.74;99243.22;7002922;28;20202;-77
2022/05/01 06:19:08;;;;;;;42.17;29.90;;;;;;;14.78;58.94;99229.97;7004564;28;20670;-77
2022/05/01 06:22:31;;;;;;;40.07;28.63;;;;;;;15.66;56.16;99240.38;7020890;28;20233;-77
2022/05/01 06:25:53;;;;;;;38.90;28.93;;;;;;;15.48;56.36;99248.53;7030638;28;20223;-77
2022/05/01 06:29:14;;;;;;;40.70;27.73;;;;;;;15.31;56.19;99236.56;7031458;28;20217;-77
2022/05/01 06:32:36;;;;;;;38.43;28.43;;;;;;;15.64;55.68;99243.31;7031534;28;20217;-78
2022/05/01 06:35:57;;;;;;;36.87;25.80;;;;;;;15.72;56.12;99240.31;7031401;28;20201;-77
2022/05/01 06:39:20;;;;;;;38.33;26.53;;;;;;;15.78;55.39;99249.44;7024158;28;20207;-78
2022/05/01 06:42:42;;;;;;;39.40;25.67;;;;;;;16.15;54.04;99232.84;7023117;28;20222;-79
2022/05/01 06:46:04;;;;;;;37.83;26.60;;;;;;;15.79;55.23;99251.09;7031435;28;20231;-78
2022/05/01 06:49:26;;;;;;;41.40;28.80;;;;;;;15.48;55.80;99238.50;7032238;28;20737;-78
2022/05/01 06:52:48;;;;;;;37.60;26.50;;;;;;;15.72;55.28;99244.91;7024855;28;20219;-79
2022/05/01 06:56:11;;;;;;;33.93;25.70;;;;;;;15.65;54.90;99242.28;7030358;28;20292;-79
2022/05/01 06:59:32;;;;;;;39.67;27.83;;;;;;;15.75;55.30;99239.84;7032402;28;20565;-78
2022/05/01 07:02:55;;;;;;;38.83;26.37;;;;;;;15.97;54.26;99237.47;7032654;28;20324;-79
2022/05/01 07:06:16;;;;;;;40.57;27.03;;;;;;;16.03;54.07;99247.44;7012225;28;20265;-79
2022/05/01 07:09:38;;;;;;;35.13;25.53;;;;;;;16.36;54.04;99242.41;7033125;28;20566;-78
2022/05/01 07:13:01;;;;;;;34.87;26.97;;;;;;;16.70;52.26;99241.72;7032172;28;20230;-79
2022/05/01 07:16:22;;;;;;;34.03;25.00;;;;;;;16.50;53.14;99233.84;7033236;28;20235;-79
2022/05/01 07:19:44;;;;;;;31.67;24.90;;;;;;;16.14;53.52;99227.63;7032865;28;20241;-79
2022/05/01 07:23:06;;;;;;;30.83;23.93;;;;;;;16.61;53.01;99240.38;7033755;28;20220;-79
2022/05/01 07:26:33;;;;;;;37.37;26.30;;;;;;;16.58;52.31;99236.22;7022325;28;20235;-79
2022/05/01 07:29:56;;;;;;;38.33;27.73;;;;;;;16.22;53.62;99255.34;7031444;28;20203;-80
2022/05/01 07:33:17;;;;;;;30.60;23.43;;;;;;;16.73;52.68;99230.34;7034247;28;20230;-80
2022/05/01 07:36:39;;;;;;;37.57;23.90;;;;;;;16.89;52.08;99243.28;7032351;28;20339;-79
2022/05/01 07:40:01;;;;;;;31.63;24.80;;;;;;;16.68;52.36;99247.38;7034162;28;20214;-80
2022/05/01 07:43:22;;;;;;;31.40;24.00;;;;;;;17.03;51.79;99248.25;7032156;28;20605;-80
2022/05/01 07:46:45;;;;;;;31.50;24.70;;;;;;;16.74;52.48;99248.34;7016392;28;20231;-80
2022/05/01 07:50:08;;;;;;;29.93;23.87;;;;;;;16.75;52.63;99218.16;7005250;28;20202;-79
2022/05/01 07:53:30;;;;;;;28.20;22.97;;;;;;;16.14;53.06;99238.50;7003138;28;20227;-79
2022/05/01 07:56:51;;;;;;;28.40;22.30;;;;;;;16.79;52.91;99245.72;7003642;28;20203;-79
2022/05/01 08:00:14;;;;;;;31.03;21.47;;;;;;;17.09;51.17;99247.31;7003181;28;20211;-78
2022/05/01 08:07:16;;;;;;;26.87;22.33;;;;;;;17.50;50.12;99246.38;7025249;28;20305;-79
2022/05/01 08:10:37;;;;;;;26.67;21.37;;;;;;;17.90;48.71;99225.44;7043561;28;20224;-79
2022/05/01 08:13:59;;;;;;;30.93;22.23;;;;;;;17.39;49.90;99237.16;7043002;28;20204;-79
2022/05/01 08:17:21;;;;;;;27.40;22.20;;;;;;;17.66;49.64;99248.41;7043690;28;20210;-79
2022/05/01 08:24:23;;;;;;;22.70;19.97;;;;;;;18.11;47.70;99236.53;7034166;28;20242;-79
2022/05/01 08:27:44;;;;;;;23.13;19.70;;;;;;;18.54;46.88;99230.56;7038277;28;20228;-79
2022/05/01 08:31:07;;;;;;;25.93;20.17;;;;;;;18.66;46.58;99236.78;7040145;28;20254;-79
2022/05/01 08:34:29;;;;;;;24.37;20.93;;;;;;;17.76;48.20;99219.44;7013291;28;20698;-79
2022/05/01 08:37:52;;;;;;;23.23;20.40;;;;;;;17.46;49.58;99228.88;7010965;28;20205;-79
2022/05/01 08:41:13;;;;;;;23.37;18.83;;;;;;;18.09;47.53;99232.38;7013026;28;20226;-79
2022/05/01 08:44:37;;;;;;;24.37;18.93;;;;;;;18.08;47.32;99239.75;7011873;28;20200;-79
2022/05/01 08:48:02;;;;;;;23.50;19.30;;;;;;;18.56;46.92;99242.91;7019338;28;20260;-79
2022/05/01 08:51:24;;;;;;;25.90;20.23;;;;;;;17.62;47.99;99236.28;7042401;28;20225;-79
2022/05/01 08:54:48;;;;;;;23.77;19.50;;;;;;;17.69;48.09;99207.03;7047076;28;20201;-79
2022/05/01 08:58:10;;;;;;;24.93;19.23;;;;;;;18.77;45.85;99231.28;7045441;28;20223;-79
2022/05/01 09:01:33;;;;;;;23.27;19.83;;;;;;;17.99;47.41;99221.28;7046383;28;20239;-79
2022/05/01 09:04:54;;;;;;;23.87;19.33;;;;;;;18.17;46.27;99226.56;7032892;28;20822;-79
2022/05/01 09:08:16;;;;;;;21.90;17.57;;;;;;;18.32;46.13;99227.72;7037624;28;20242;-79
2022/05/01 09:15:29;;;;;;;21.43;16.70;;;;;;;18.67;45.53;99222.06;7018988;28;20198;-79
2022/05/01 09:18:51;;;;;;;21.07;16.97;;;;;;;19.06;44.95;99224.66;7011223;28;20198;-78
2022/05/01 09:22:13;;;;;;;18.77;15.30;;;;;;;19.04;43.79;99212.31;7017044;28;20224;-79
2022/05/01 09:25:34;;;;;;;22.03;18.83;;;;;;;18.50;43.92;99216.56;7042352;28;20234;-77
2022/05/01 09:28:57;;;;;;;17.33;15.53;;;;;;;19.28;44.06;99224.75;7014872;28;20206;-78
2022/05/01 09:32:35;;;;;;;19.20;15.80;;;;;;;19.41;43.89;99227.94;7019268;28;20236;-80
2022/05/01 09:35:57;;;;;;;21.30;15.57;;;;;;;19.41;43.15;99202.50;7018557;28;20205;-80
2022/05/01 09:39:19;;;;;;;20.03;15.63;;;;;;;19.80;41.67;99199.47;7021589;28;20259;-81
2022/05/01 09:42:41;;;;;;;20.57;17.00;;;;;;;19.44;43.06;99216.50;7030634;28;20223;-80
2022/05/01 09:46:17;;;;;;;16.93;14.40;;;;;;;20.86;40.53;99216.00;7051104;28;20225;-80
2022/05/01 09:49:49;;;;;;;16.07;14.37;;;;;;;20.49;40.56;99214.25;7046454;28;20690;-81
2022/05/01 09:53:13;;;;;;;17.90;14.40;;;;;;;20.76;39.80;99204.13;7035671;28;20253;-79
2022/05/01 09:56:44;;;;;;;14.63;12.13;;;;;;;20.87;38.67;99205.88;7034754;28;20235;-80
2022/05/01 10:00:07;;;;;;;14.43;12.73;;;;;;;20.71;38.51;99198.59;7030821;28;20194;-78
2022/05/01 10:03:31;;;;;;;13.37;11.97;;;;;;;20.58;38.78;99209.97;7018102;28;20222;-79
2022/05/01 10:06:53;;;;;;;14.63;13.03;;;;;;;20.45;39.32;99204.94;7004988;28;20235;-80
2022/05/01 10:10:15;;;;;;;16.97;13.00;;;;;;;21.16;37.58;99201.75;7006394;28;20208;-80
2022/05/01 10:13:37;;;;;;;15.70;13.63;;;;;;;19.88;39.31;99201.75;7006707;28;20265;-80
2022/05/01 10:16:58;;;;;;;17.30;13.27;;;;;;;19.42;41.13;99204.16;7009440;28;20199;-79
2022/05/01 10:20:23;;;;;;;14.50;12.70;;;;;;;19.90;40.41;99188.66;7016233;28;20396;-80
2022/05/01 10:23:45;;;;;;;15.33;12.93;;;;;;;20.12;40.33;99195.00;7003291;28;20683;-80
2022/05/01 10:27:12;;;;;;;14.93;13.03;;;;;;;20.50;39.37;99180.28;7003983;28;20233;-80
2022/05/01 10:34:44;;;;;;;14.30;12.07;;;;;;;20.78;38.36;99178.09;7004276;28;20188;-81
2022/05/01 10:38:24;;;;;;;13.83;12.40;;;;;;;19.65;39.85;99182.88;7004043;28;20190;-80
2022/05/01 10:41:47;;;;;;;15.23;13.43;;;;;;;21.63;37.47;99189.66;7004485;28;20221;-80
2022/05/01 10:45:42;;;;;;;13.97;11.27;;;;;;;21.96;36.29;99184.63;7014780;28;20284;-80
2022/05/01 10:49:05;;;;;;;13.83;12.43;;;;;;;21.40;37.47;99182.69;7003734;28;20210;-80
2022/05/01 10:52:28;;;;;;;13.00;11.63;;;;;;;21.41;37.25;99158.81;7002894;28;20714;-80
2022/05/01 10:55:53;;;;;;;14.37;12.97;;;;;;;21.63;37.27;99167.72;7003039;28;20190;-80
2022/05/01 10:59:34;;;;;;;12.20;11.10;;;;;;;21.86;36.70;99170.88;7003048;28;20261;-81
2022/05/01 11:02:56;;;;;;;11.70;10.50;;;;;;;21.96;36.93;99143.44;7014109;28;20312;-80
2022/05/01 11:06:21;;;;;;;16.87;12.13;;;;;;;21.36;37.52;99150.59;7002731;28;20236;-80
2022/05/01 11:09:45;;;;;;;14.20;11.97;;;;;;;21.36;38.13;99156.06;7005354;28;20212;-79
2022/05/01 11:13:08;;;;;;;12.60;11.33;;;;;;;22.28;35.23;99141.34;7030432;28;20255;-79
2022/05/01 11:16:50;;;;;;;13.87;12.40;;;;;;;20.72;37.15;99148.16;7029616;28;20675;-79
2022/05/01 11:20:30;;;;;;;12.03;10.60;;;;;;;20.63;38.14;99149.75;7029001;28;20240;-79
2022/05/01 11:23:58;;;;;;;12.17;10.57;;;;;;;21.22;36.85;99138.41;7005947;28;20191;-79
2022/05/01 11:27:21;;;;;;;11.80;10.53;;;;;;;22.29;33.78;99136.66;7010059;28;20210;-81
2022/05/01 11:30:44;;;;;;;11.80;9.37;;;;;;;22.71;34.78;99113.34;7016733;28;20232;-79
2022/05/01 11:34:31;;;;;;;10.73;9.63;;;;;;;22.16;35.20;99124.28;7016071;28;20308;-80
2022/05/01 11:38:08;;;;;;;11.77;10.57;;;;;;;22.35;34.25;99135.56;6990844;28;20614;-79
2022/05/01 11:41:40;;;;;;;12.40;10.77;;;;;;;22.19;34.40;99142.97;7001812;28;20239;-80
2022/05/01 11:45:02;;;;;;;11.30;8.93;;;;;;;22.47;33.69;99134.25;7004237;28;20201;-79
2022/05/01 11:48:26;;;;;;;10.27;9.27;;;;;;;22.60;32.59;99122.69;7002235;28;20680;-79
2022/05/01 11:51:47;;;;;;;9.93;8.93;;;;;;;22.53;33.44;99127.66;7001783;28;20225;-79
2022/05/01 11:55:10;;;;;;;9.53;8.53;;;;;;;23.16;33.10;99121.59;7002109;28;20248;-79
2022/05/01 12:02:26;;;;;;;11.07;10.07;;;;;;;22.38;34.60;99124.03;7027787;28;20219;-79
2022/05/01 12:05:49;;;;;;;12.63;9.93;;;;;;;22.29;35.95;99109.19;7029300;28;20232;-79
2022/05/01 12:09:11;;;;;;;10.93;9.83;;;;;;;22.27;35.36;99090.25;7030318;28;20226;-79
2022/05/01 12:12:32;;;;;;;12.93;9.77;;;;;;;21.51;34.77;99095.75;7030366;28;20697;-79
2022/05/01 12:15:54;;;;;;;10.73;9.70;;;;;;;20.90;37.25;99106.66;7029377;28;20801;-80
2022/05/01 12:19:16;;;;;;;10.43;9.27;;;;;;;22.35;34.85;99075.13;7030308;28;20265;-81
2022/05/01 12:22:39;;;;;;;9.47;8.57;;;;;;;22.34;34.88;99103.69;7030245;28;20248;-80
2022/05/01 12:26:03;;;;;;;11.63;8.90;;;;;;;22.14;35.57;99089.94;7029834;28;20232;-80
2022/05/01 12:29:25;;;;;;;10.27;9.23;;;;;;;21.81;35.61;99102.22;7035391;28;20232;-80
2022/05/01 12:32:53;;;;;;;10.17;9.10;;;;;;;21.55;36.04;99102.38;7035815;28;20238;-79
2022/05/01 12:36:24;;;;;;;12.63;10.07;;;;;;;21.15;37.11;99093.94;7034800;28;20191;-79
2022/05/01 12:39:57;;;;;;;10.87;9.73;;;;;;;20.56;37.76;99094.31;7053759;28;20308;-79
2022/05/01 12:47:03;;;;;;;11.97;9.60;;;;;;;20.86;36.59;99100.06;7015016;28;20222;-79
2022/05/01 12:50:27;;;;;;;11.33;9.80;;;;;;;21.17;36.62;99089.84;7007201;28;20233;-79
2022/05/01 12:53:49;;;;;;;12.93;8.63;;;;;;;22.45;34.51;99084.25;7007224;28;20204;-79
2022/05/01 12:57:33;;;;;;;10.13;9.13;;;;;;;21.89;35.38;99082.47;7006440;28;20206;-80
2022/05/01 13:00:54;;;;;;;9.10;8.20;;;;;;;21.88;35.05;99055.28;7006912;28;20235;-80
2022/05/01 13:04:22;;;;;;;10.97;9.73;;;;;;;22.27;35.12;99081.16;7017150;28;20289;-80
2022/05/01 13:07:43;;;;;;;9.37;8.40;;;;;;;23.20;34.32;99072.34;7006281;28;20752;-80
2022/05/01 13:11:09;;;;;;;8.90;8.00;;;;;;;22.56;34.92;99077.66;7006335;28;20247;-80
2022/05/01 13:14:34;;;;;;;9.03;8.23;;;;;;;22.04;35.37;99055.06;7006239;28;20210;-80
2022/05/01 13:18:02;;;;;;;9.87;8.93;;;;;;;21.80;35.41;99066.81;7006030;28;20219;-80
2022/05/01 13:21:25;;;;;;;11.07;8.87;;;;;;;22.05;35.61;99056.69;7015603;28;20621;-80
2022/05/01 13:24:47;;;;;;;10.63;9.53;;;;;;;21.95;36.28;99064.91;7029550;28;20563;-81
2022/05/01 13:28:09;;;;;;;10.03;9.03;;;;;;;22.46;34.66;99055.66;7033861;28;20217;-80
2022/05/01 13:31:32;;;;;;;10.70;8.30;;;;;;;21.46;36.08;99044.44;7034704;28;20277;-80
2022/05/01 13:34:53;;;;;;;11.80;9.60;;;;;;;20.04;38.16;99044.03;7033980;28;20211;-81
2022/05/01 13:38:15;;;;;;;9.73;8.73;;;;;;;21.08;37.49;99042.06;7020592;28;20201;-81
2022/05/01 13:45:16;;;;;;;12.87;9.33;;;;;;;20.43;37.86;99049.03;7008967;28;20364;-81
2022/05/01 13:48:40;;;;;;;9.73;8.73;;;;;;;20.11;39.09;99047.41;7014871;28;20340;-81
2022/05/01 13:52:02;;;;;;;9.33;8.40;;;;;;;20.76;38.30;99036.94;7018559;28;20254;-80
2022/05/01 13:55:24;;;;;;;10.87;8.70;;;;;;;21.12;37.49;99031.44;7014881;28;20210;-81
2022/05/01 13:58:46;;;;;;;9.83;8.10;;;;;;;21.98;36.09;99034.19;7004881;28;20208;-81
2022/05/01 14:02:08;;;;;;;9.30;8.47;;;;;;;21.96;36.23;99028.13;7005680;28;20222;-81
2022/05/01 14:05:31;;;;;;;9.70;8.70;;;;;;;21.79;36.38;99030.31;7006119;28;20209;-80
2022/05/01 14:08:52;;;;;;;9.57;8.57;;;;;;;22.52;35.53;99018.81;7005262;28;20231;-80
2022/05/01 14:12:14;;;;;;;11.10;8.77;;;;;;;22.49;34.35;99000.13;7027233;28;20833;-80
2022/05/01 14:15:37;;;;;;;10.87;8.67;;;;;;;21.64;36.96;99007.44;7031008;28;20197;-81
2022/05/01 14:18:58;;;;;;;8.90;7.63;;;;;;;21.87;36.26;99006.97;7033231;28;20212;-80
2022/05/01 14:22:22;;;;;;;9.57;8.57;;;;;;;21.29;37.22;98999.09;7033621;28;20260;-81
2022/05/01 14:25:44;;;;;;;9.63;8.73;;;;;;;21.76;36.23;98994.31;7015173;28;20581;-81
2022/05/01 14:29:06;;;;;;;9.23;8.27;;;;;;;21.79;36.14;99005.59;7033853;28;20235;-81
2022/05/01 14:32:35;;;;;;;8.33;7.33;;;;;;;22.02;34.91;98991.31;7033385;28;20228;-81
2022/05/01 14:35:56;;;;;;;10.90;8.53;;;;;;;22.43;34.53;98976.50;7033438;28;20290;-83
2022/05/01 14:39:22;;;;;;;9.20;7.60;;;;;;;23.10;33.52;98978.78;7024952;28;20207;-81
2022/05/01 14:42:48;;;;;;;7.33;6.60;;;;;;;23.15;34.04;98971.34;7027335;28;20259;-82
2022/05/01 14:46:10;;;;;;;9.77;8.60;;;;;;;22.91;33.32;98983.28;7033923;28;20657;-82
2022/05/01 14:49:46;;;;;;;8.67;7.47;;;;;;;22.99;34.25;98979.94;7033406;28;20249;-82
2022/05/01 14:53:10;;;;;;;8.03;7.23;;;;;;;22.93;35.10;98959.06;7009104;28;20225;-82
2022/05/01 14:56:36;;;;;;;8.60;7.03;;;;;;;23.75;32.00;98960.03;7005351;28;20269;-83
2022/05/01 15:07:19;;;;;;;7.80;6.63;;;;;;;23.88;32.54;98962.16;7004151;28;20259;-81
2022/05/01 15:10:43;;;;;;;7.17;6.47;;;;;;;23.32;33.09;98960.84;7030719;28;20233;-82
2022/05/01 15:14:06;;;;;;;7.73;6.93;;;;;;;23.53;32.78;98956.03;7031466;28;20215;-82
2022/05/01 15:17:30;;;;;;;7.23;6.63;;;;;;;23.59;32.47;98936.44;7010665;28;20205;-81
2022/05/01 15:20:56;;;;;;;7.77;6.97;;;;;;;23.79;31.69;98952.00;7008357;28;20299;-82
2022/05/01 15:24:19;;;;;;;7.80;7.00;;;;;;;23.66;32.88;98955.41;7005740;28;20213;-82
2022/05/01 15:27:46;;;;;;;11.93;7.70;;;;;;;22.58;34.23;98954.50;7024081;28;20356;-82
2022/05/01 15:31:15;;;;;;;8.43;7.53;;;;;;;22.67;34.86;98954.75;7033364;28;20232;-82
2022/05/01 15:34:37;;;;;;;7.93;7.10;;;;;;;23.23;34.27;98948.78;7027349;28;20199;-82
2022/05/01 15:38:00;;;;;;;8.43;7.63;;;;;;;22.33;36.01;98954.53;7016137;28;20229;-82
2022/05/01 15:41:31;;;;;;;11.03;7.83;;;;;;;21.02;37.73;98946.38;7005509;28;20224;-82
2022/05/01 15:44:53;;;;;;;7.23;6.50;;;;;;;21.62;37.01;98952.84;7013926;28;20241;-81
2022/05/01 15:48:17;;;;;;;6.80;6.10;;;;;;;21.19;37.78;98955.22;7030720;28;20227;-80
2022/05/01 15:55:20;;;;;;;6.87;5.87;;;;;;;21.34;37.26;98947.84;7002463;28;20205;-81
2022/05/01 15:58:44;;;;;;;6.93;5.70;;;;;;;21.07;37.36;98957.38;7001858;28;20209;-80
2022/05/01 16:02:05;;;;;;;6.40;5.67;;;;;;;20.73;38.08;98947.84;7001990;28;20228;-80
2022/05/01 16:05:30;;;;;;;6.93;6.23;;;;;;;21.00;37.04;98939.50;7002650;28;20225;-80
2022/05/01 16:08:52;;;;;;;6.73;6.13;;;;;;;21.30;36.16;98948.66;7002547;28;20263;-80
2022/05/01 16:12:17;;;;;;;7.13;6.00;;;;;;;21.31;35.34;98942.88;7002144;28;20228;-80
2022/05/01 16:15:44;;;;;;;6.40;5.80;;;;;;;21.55;35.67;98927.56;7002658;28;20198;-79
2022/05/01 16:19:25;;;;;;;6.60;6.00;;;;;;;21.43;35.75;98945.41;7005806;28;20674;-80
2022/05/01 16:22:50;;;;;;;7.97;6.40;;;;;;;21.23;36.61;98937.09;7022584;28;20220;-79
2022/05/01 16:26:13;;;;;;;7.03;6.33;;;;;;;21.20;36.52;98943.94;7030655;28;20209;-79